Time;durP1;ratioP1;P1;durP2;ratioP2;P2;SDS_P1;SDS_P2;PMS_P1;PMS_P2;Temp;Humidity;BMP_temperature;BMP_pressure;BME280_temperature;BME280_humidity;BME280_pressure;Samples;Min_cycle;Max_cycle;Signal;HPM_P1;HPM_P2
2023/09/03 00:00:59;;;;;;;;;;;;;;;-144.99;100.00;52325.81;4999076;28;20028;-67
2023/09/03 00:03:25;;;;;;;;;;;;;;;-144.99;100.00;52256.50;5000118;28;20453;-64
2023/09/03 00:05:53;;;;;;;;;;;;;;;-144.99;100.00;52303.38;4995155;28;20673;-67
2023/09/03 00:08:21;;;;;;;;;;;;;;;-144.99;100.00;52285.03;4997416;28;19947;-66
2023/09/03 00:10:49;;;;;;;;;;;;;;;-144.99;100.00;52297.25;4996179;28;19941;-66
2023/09/03 00:13:15;;;;;;;;;;;;;;;-144.99;100.00;52325.81;4999795;28;20562;-64
2023/09/03 00:15:41;;;;;;;;;;;;;;;-144.99;100.00;52280.97;4997422;28;20055;-65
2023/09/03 00:18:10;;;;;;;;;;;;;;;-144.99;100.00;52317.66;4996505;28;19948;-65
2023/09/03 00:20:36;;;;;;;;;;;;;;;-144.99;100.00;52329.88;4995735;28;19963;-66
2023/09/03 00:23:03;;;;;;;;;;;;;;;-144.99;100.00;52301.34;4997075;28;19945;-65
2023/09/03 00:25:34;;;;;;;;;;;;;;;-144.99;100.00;52331.91;4994994;28;20013;-65
2023/09/03 00:28:01;;;;;;;;;;;;;;;-144.99;100.00;52313.56;5000353;28;20745;-65
2023/09/03 00:30:27;;;;;;;;;;;;;;;-144.99;100.00;52309.50;4998937;28;20035;-64
2023/09/03 00:32:54;;;;;;;;;;;;;;;-144.99;100.00;52329.88;4996099;28;20500;-65
2023/09/03 00:35:22;;;;;;;;;;;;;;;-144.99;100.00;52315.59;4996561;28;19966;-64
2023/09/03 00:37:48;;;;;;;;;;;;;;;-144.99;100.00;52301.34;5003266;28;19973;-67
2023/09/03 00:40:15;;;;;;;;;;;;;;;-144.99;100.00;52325.81;5008661;28;20354;-64
2023/09/03 00:42:41;;;;;;;;;;;;;;;-144.99;100.00;52313.56;5006128;28;20583;-64
2023/09/03 00:45:08;;;;;;;;;;;;;;;-144.99;100.00;52293.19;5005756;28;20004;-65
2023/09/03 00:47:35;;;;;;;;;;;;;;;-144.99;100.00;52317.66;5004021;28;20044;-65
2023/09/03 00:50:03;;;;;;;;;;;;;;;-144.99;100.00;52280.97;5005939;28;19950;-65
2023/09/03 00:52:31;;;;;;;;;;;;;;;-144.99;100.00;52307.47;5003220;28;20018;-68
2023/09/03 00:54:58;;;;;;;;;;;;;;;-144.99;100.00;52317.66;4993496;28;19949;-68
2023/09/03 00:57:25;;;;;;;;;;;;;;;-144.99;100.00;52289.13;5008547;28;19981;-68
2023/09/03 00:59:51;;;;;;;;;;;;;;;-144.99;100.00;52289.13;5004452;28;20042;-68
2023/09/03 01:02:19;;;;;;;;;;;;;;;-144.99;100.00;52325.81;5006010;28;20013;-67
2023/09/03 01:04:45;;;;;;;;;;;;;;;-144.99;100.00;52305.41;5005350;28;20383;-67
2023/09/03 01:07:13;;;;;;;;;;;;;;;-144.99;100.00;52340.06;5003656;28;19929;-67
2023/09/03 01:09:41;;;;;;;;;;;;;;;-144.99;100.00;52305.41;5006087;28;19942;-66
2023/09/03 01:12:11;;;;;;;;;;;;;;;-144.99;100.00;52285.03;5004362;28;20050;-67
2023/09/03 01:14:40;;;;;;;;;;;;;;;-144.99;100.00;52287.06;5002976;28;19998;-67
2023/09/03 01:17:09;;;;;;;;;;;;;;;-144.99;100.00;52329.88;4998158;28;19967;-68
2023/09/03 01:19:52;;;;;;;;;;;;;;;-144.99;100.00;52313.56;4993907;28;19935;-67
2023/09/03 01:22:27;;;;;;;;;;;;;;;-144.99;100.00;52329.88;4994347;28;20618;-67
2023/09/03 01:25:04;;;;;;;;;;;;;;;-144.99;100.00;52303.38;4997690;28;20003;-64
2023/09/03 01:27:37;;;;;;;;;;;;;;;-144.99;100.00;52313.56;4995629;28;19961;-63
2023/09/03 01:30:06;;;;;;;;;;;;;;;-144.99;100.00;52325.81;4997086;28;19990;-62
2023/09/03 01:32:32;;;;;;;;;;;;;;;-144.99;100.00;52293.19;4657811;28;9999630;-62
2023/09/03 01:34:59;;;;;;;;;;;;;;;-144.99;100.00;52329.88;5000389;28;20059;-63
2023/09/03 01:37:26;;;;;;;;;;;;;;;-144.99;100.00;52333.94;5002917;28;19965;-63
2023/09/03 01:39:53;;;;;;;;;;;;;;;-144.99;100.00;52301.34;5003651;28;20855;-62
2023/09/03 01:42:19;;;;;;;;;;;;;;;-144.99;100.00;52305.41;5001374;28;20048;-63
2023/09/03 01:44:46;;;;;;;;;;;;;;;-144.99;100.00;52289.13;5004457;28;19962;-66
2023/09/03 01:47:19;;;;;;;;;;;;;;;-144.99;100.00;52297.25;5011700;28;19999;-66
2023/09/03 01:49:51;;;;;;;;;;;;;;;-144.99;100.00;52317.66;5004528;28;20351;-66
2023/09/03 01:52:24;;;;;;;;;;;;;;;-144.99;100.00;52325.81;5004460;28;20062;-66
2023/09/03 01:54:51;;;;;;;;;;;;;;;-144.99;100.00;52366.56;4998764;28;20608;-66
2023/09/03 01:57:19;;;;;;;;;;;;;;;-144.99;100.00;52293.19;4999472;28;20025;-66
2023/09/03 01:59:49;;;;;;;;;;;;;;;-144.99;100.00;52297.25;5007795;28;20088;-65
2023/09/03 02:02:18;;;;;;;;;;;;;;;-144.99;100.00;52307.47;5008149;28;20000;-66
2023/09/03 02:04:44;;;;;;;;;;;;;;;-144.99;100.00;52297.25;5001513;28;19964;-66
2023/09/03 02:07:11;;;;;;;;;;;;;;;-144.99;100.00;52317.66;5001038;28;20031;-66
2023/09/03 02:09:37;;;;;;;;;;;;;;;-144.99;100.00;52309.50;4998413;28;19949;-66
2023/09/03 02:12:06;;;;;;;;;;;;;;;-144.99;100.00;52291.16;4994913;28;19999;-67
2023/09/03 02:17:01;;;;;;;;;;;;;;;-144.99;100.00;52285.03;5054114;28;19939;-71
2023/09/03 02:19:29;;;;;;;;;;;;;;;-144.99;100.00;52317.66;5057255;28;19935;-71
2023/09/03 02:21:55;;;;;;;;;;;;;;;-144.99;100.00;52301.34;5062667;28;19929;-72
2023/09/03 02:24:22;;;;;;;;;;;;;;;-144.99;100.00;52301.34;5051769;28;19971;-71
2023/09/03 02:26:48;;;;;;;;;;;;;;;-144.99;100.00;52333.94;5039287;28;19933;-67
2023/09/03 02:29:15;;;;;;;;;;;;;;;-144.99;100.00;52280.97;5038136;28;20018;-65
2023/09/03 02:31:41;;;;;;;;;;;;;;;-144.99;100.00;52325.81;5035335;28;20034;-65
2023/09/03 02:34:08;;;;;;;;;;;;;;;-144.99;100.00;52325.81;5035120;28;20455;-68
2023/09/03 02:36:36;;;;;;;;;;;;;;;-144.99;100.00;52317.66;5039363;28;19980;-70
2023/09/03 02:39:03;;;;;;;;;;;;;;;-144.99;100.00;52309.50;5043713;28;20240;-70
2023/09/03 02:41:30;;;;;;;;;;;;;;;-144.99;100.00;52313.56;5044607;28;19957;-70
2023/09/03 02:43:57;;;;;;;;;;;;;;;-144.99;100.00;52313.56;5033850;28;20055;-70
2023/09/03 02:46:24;;;;;;;;;;;;;;;-144.99;100.00;52289.13;5047026;28;19963;-70
2023/09/03 02:48:50;;;;;;;;;;;;;;;-144.99;100.00;52329.88;5041727;28;19979;-70
2023/09/03 02:51:17;;;;;;;;;;;;;;;-144.99;100.00;52252.44;5040626;28;20021;-70
2023/09/03 02:53:45;;;;;;;;;;;;;;;-144.99;100.00;52301.34;5043284;28;19952;-70
2023/09/03 02:56:12;;;;;;;;;;;;;;;-144.99;100.00;52333.94;5039418;28;20001;-66
2023/09/03 02:58:39;;;;;;;;;;;;;;;-144.99;100.00;52293.19;5047066;28;19995;-66
2023/09/03 03:01:06;;;;;;;;;;;;;;;-144.99;100.00;52297.25;5040248;28;19967;-72
2023/09/03 03:03:33;;;;;;;;;;;;;;;-144.99;100.00;52289.13;5039154;28;19967;-72
2023/09/03 03:05:59;;;;;;;;;;;;;;;-144.99;100.00;52291.16;5047051;28;19941;-73
2023/09/03 03:08:26;;;;;;;;;;;;;;;-144.99;100.00;52305.41;5040714;28;20477;-65
2023/09/03 03:11:04;;;;;;;;;;;;;;;-144.99;100.00;52295.22;5040454;28;20428;-66
2023/09/03 03:13:31;;;;;;;;;;;;;;;-144.99;100.00;52321.72;5038052;28;20031;-65
2023/09/03 03:15:57;;;;;;;;;;;;;;;-144.99;100.00;52305.41;5038277;28;20656;-68
2023/09/03 03:18:24;;;;;;;;;;;;;;;-144.99;100.00;52342.09;5037774;28;20389;-65
2023/09/03 03:20:53;;;;;;;;;;;;;;;-144.99;100.00;52325.81;5038472;28;20756;-67
2023/09/03 03:23:20;;;;;;;;;;;;;;;-144.99;100.00;52325.81;5040374;28;19939;-67
2023/09/03 03:25:54;;;;;;;;;;;;;;;-144.99;100.00;52307.47;5038417;28;19958;-65
2023/09/03 03:28:20;;;;;;;;;;;;;;;-144.99;100.00;52325.81;5038495;28;20044;-65
2023/09/03 03:30:47;;;;;;;;;;;;;;;-144.99;100.00;52321.72;5038847;28;19987;-65
2023/09/03 03:33:13;;;;;;;;;;;;;;;-144.99;100.00;52301.34;5040423;28;19962;-64
2023/09/03 03:35:40;;;;;;;;;;;;;;;-144.99;100.00;52325.81;5039085;28;19986;-66
2023/09/03 03:38:06;;;;;;;;;;;;;;;-144.99;100.00;52329.88;5039763;28;20022;-65
2023/09/03 03:40:33;;;;;;;;;;;;;;;-144.99;100.00;52370.63;5038228;28;20012;-65
2023/09/03 03:43:01;;;;;;;;;;;;;;;-144.99;100.00;52333.94;5036152;28;19959;-66
2023/09/03 03:45:27;;;;;;;;;;;;;;;-144.99;100.00;52313.56;5044176;28;19943;-65
2023/09/03 03:47:53;;;;;;;;;;;;;;;-144.99;100.00;52333.94;5042277;28;19978;-65
2023/09/03 03:50:20;;;;;;;;;;;;;;;-144.99;100.00;52299.31;5042533;28;20068;-65
2023/09/03 03:52:46;;;;;;;;;;;;;;;-144.99;100.00;52329.88;5040771;28;20328;-65
2023/09/03 03:55:13;;;;;;;;;;;;;;;-144.99;100.00;52327.84;5036576;28;20137;-65
2023/09/03 03:57:39;;;;;;;;;;;;;;;-144.99;100.00;52317.66;5039114;28;20312;-66
2023/09/03 04:00:09;;;;;;;;;;;;;;;-144.99;100.00;52362.50;5036991;28;20040;-67
2023/09/03 04:02:35;;;;;;;;;;;;;;;-144.99;100.00;52303.38;5040132;28;20322;-67
2023/09/03 04:05:02;;;;;;;;;;;;;;;-144.99;100.00;52309.50;5036392;28;20017;-67
2023/09/03 04:07:28;;;;;;;;;;;;;;;-144.99;100.00;52348.22;5038020;28;20200;-67
2023/09/03 04:09:55;;;;;;;;;;;;;;;-144.99;100.00;52309.50;5038742;28;20367;-66
2023/09/03 04:12:21;;;;;;;;;;;;;;;-144.99;100.00;52325.81;5036635;28;19959;-64
2023/09/03 04:14:48;;;;;;;;;;;;;;;-144.99;100.00;52366.56;5038520;28;19955;-66
2023/09/03 04:17:16;;;;;;;;;;;;;;;-144.99;100.00;52313.56;5036987;28;20421;-71
2023/09/03 04:19:46;;;;;;;;;;;;;;;-144.99;100.00;52307.47;5039210;28;19994;-71
2023/09/03 04:22:13;;;;;;;;;;;;;;;-144.99;100.00;52327.84;5039440;28;20030;-63
2023/09/03 04:24:39;;;;;;;;;;;;;;;-144.99;100.00;52327.84;5035902;28;20038;-65
2023/09/03 04:27:06;;;;;;;;;;;;;;;-144.99;100.00;52325.81;5036135;28;20026;-67
2023/09/03 04:29:32;;;;;;;;;;;;;;;-144.99;100.00;52372.69;5038036;28;20771;-66
2023/09/03 04:31:59;;;;;;;;;;;;;;;-144.99;100.00;52338.03;5036700;28;19976;-66
2023/09/03 04:34:27;;;;;;;;;;;;;;;-144.99;100.00;52338.03;5037658;28;19948;-65
2023/09/03 04:36:54;;;;;;;;;;;;;;;-144.99;100.00;52333.94;5040466;28;20012;-65
2023/09/03 04:39:20;;;;;;;;;;;;;;;-144.99;100.00;52307.47;5043327;28;19938;-67
2023/09/03 04:41:47;;;;;;;;;;;;;;;-144.99;100.00;52366.56;5037057;28;20014;-65
2023/09/03 04:44:13;;;;;;;;;;;;;;;-144.99;100.00;52346.19;5038530;28;19954;-66
2023/09/03 04:46:40;;;;;;;;;;;;;;;-144.99;100.00;52350.25;5041955;28;20298;-67
2023/09/03 04:49:06;;;;;;;;;;;;;;;-144.99;100.00;52350.25;5038951;28;19949;-66
2023/09/03 04:51:34;;;;;;;;;;;;;;;-144.99;100.00;52285.03;5044632;28;20031;-65
2023/09/03 04:54:01;;;;;;;;;;;;;;;-144.99;100.00;52317.66;5039820;28;20087;-65
2023/09/03 04:56:27;;;;;;;;;;;;;;;-144.99;100.00;52327.84;5042236;28;20018;-65
2023/09/03 04:58:54;;;;;;;;;;;;;;;-144.99;100.00;52370.63;5034390;28;20370;-64
2023/09/03 05:01:21;;;;;;;;;;;;;;;-144.99;100.00;52338.03;5041087;28;20336;-66
2023/09/03 05:03:47;;;;;;;;;;;;;;;-144.99;100.00;52333.94;5047609;28;20331;-64
2023/09/03 05:06:14;;;;;;;;;;;;;;;-144.99;100.00;52333.94;5038511;28;20068;-65
2023/09/03 05:08:42;;;;;;;;;;;;;;;-144.99;100.00;52333.94;5035855;28;19961;-65
2023/09/03 05:11:09;;;;;;;;;;;;;;;-144.99;100.00;52317.66;5039812;28;19939;-65
2023/09/03 05:13:35;;;;;;;;;;;;;;;-144.99;100.00;52374.72;5036134;28;19974;-64
2023/09/03 05:16:02;;;;;;;;;;;;;;;-144.99;100.00;52305.41;5039049;28;19944;-64
2023/09/03 05:18:28;;;;;;;;;;;;;;;-144.99;100.00;52305.41;5038140;28;19960;-65
2023/09/03 05:20:55;;;;;;;;;;;;;;;-144.99;100.00;52313.56;5035312;28;20037;-64
2023/09/03 05:23:21;;;;;;;;;;;;;;;-144.99;100.00;52301.34;5037904;28;19958;-64
2023/09/03 05:25:49;;;;;;;;;;;;;;;-144.99;100.00;52289.13;5037727;28;20433;-65
2023/09/03 05:28:16;;;;;;;;;;;;;;;-144.99;100.00;52333.94;5037426;28;19977;-63
2023/09/03 05:30:42;;;;;;;;;;;;;;;-144.99;100.00;52313.56;5036018;28;20020;-62
2023/09/03 05:33:09;;;;;;;;;;;;;;;-144.99;100.00;52342.09;5031732;28;20030;-66
2023/09/03 05:35:35;;;;;;;;;;;;;;;-144.99;100.00;52325.81;5037307;28;20012;-65
2023/09/03 05:38:02;;;;;;;;;;;;;;;-144.99;100.00;52301.34;5037813;28;20050;-65
2023/09/03 05:40:28;;;;;;;;;;;;;;;-144.99;100.00;52313.56;5036280;28;20613;-65
2023/09/03 05:42:56;;;;;;;;;;;;;;;-144.99;100.00;52313.56;5037879;28;19987;-66
2023/09/03 05:45:22;;;;;;;;;;;;;;;-144.99;100.00;52309.50;5035655;28;20037;-65
2023/09/03 05:47:49;;;;;;;;;;;;;;;-144.99;100.00;52260.56;5036953;28;20041;-71
2023/09/03 05:50:15;;;;;;;;;;;;;;;-144.99;100.00;52285.03;5036177;28;20126;-70
2023/09/03 05:52:42;;;;;;;;;;;;;;;-144.99;100.00;52280.97;5037804;28;19974;-70
2023/09/03 05:55:09;;;;;;;;;;;;;;;-144.99;100.00;52276.88;5032668;28;19998;-65
2023/09/03 05:57:37;;;;;;;;;;;;;;;-144.99;100.00;52309.50;5035414;28;20533;-67
2023/09/03 06:00:07;;;;;;;;;;;;;;;-144.99;100.00;52309.50;5034318;28;20067;-67
2023/09/03 06:02:34;;;;;;;;;;;;;;;-144.99;100.00;52227.97;5033600;28;20024;-66
2023/09/03 06:05:00;;;;;;;;;;;;;;;-144.99;100.00;52285.03;5036123;28;20059;-67
2023/09/03 06:07:27;;;;;;;;;;;;;;;-144.99;100.00;52289.13;5032877;28;20248;-66
2023/09/03 06:09:53;;;;;;;;;;;;;;;-144.99;100.00;52268.72;5033018;28;19943;-68
2023/09/03 06:12:20;;;;;;;;;;;;;;;-144.99;100.00;52256.50;5042072;28;19956;-69
2023/09/03 06:14:46;;;;;;;;;;;;;;;-144.99;100.00;52305.41;5033469;28;20074;-66
2023/09/03 06:17:14;;;;;;;;;;;;;;;-144.99;100.00;52283.00;5032059;28;19955;-66
2023/09/03 06:19:41;;;;;;;;;;;;;;;-144.99;100.00;52248.34;5031776;28;20702;-68
2023/09/03 06:22:08;;;;;;;;;;;;;;;-144.99;100.00;52248.34;5034953;28;19966;-68
2023/09/03 06:24:34;;;;;;;;;;;;;;;-144.99;100.00;52264.66;5037208;28;19936;-68
2023/09/03 06:27:01;;;;;;;;;;;;;;;-144.99;100.00;52254.47;5032645;28;21342;-68
2023/09/03 06:29:27;;;;;;;;;;;;;;;-144.99;100.00;52260.56;5034715;28;19933;-66
2023/09/03 06:31:54;;;;;;;;;;;;;;;-144.99;100.00;52242.22;5035668;28;19951;-65
2023/09/03 06:34:22;;;;;;;;;;;;;;;-144.99;100.00;52276.88;5033594;28;20280;-68
2023/09/03 06:36:49;;;;;;;;;;;;;;;-144.99;100.00;52280.97;5020631;28;19946;-68
2023/09/03 06:39:16;;;;;;;;;;;;;;;-144.99;100.00;52268.72;5046892;28;19925;-68
2023/09/03 06:41:42;;;;;;;;;;;;;;;-144.99;100.00;52297.25;5046827;28;19932;-68
2023/09/03 06:44:09;;;;;;;;;;;;;;;-144.99;100.00;52223.88;5040054;28;20042;-68
2023/09/03 06:46:35;;;;;;;;;;;;;;;-144.99;99.66;52252.44;5047762;28;20404;-68
2023/09/03 06:49:01;;;;;;;;;;;;;;;-144.99;98.96;52266.69;5039360;28;20384;-67
2023/09/03 06:51:29;;;;;;;;;;;;;;;-144.99;99.05;52221.84;5034781;28;20067;-67
2023/09/03 06:53:56;;;;;;;;;;;;;;;-144.99;98.91;52280.97;5047854;28;20452;-67
2023/09/03 06:56:23;;;;;;;;;;;;;;;-144.99;98.61;52248.34;5041202;28;19984;-65
2023/09/03 06:58:49;;;;;;;;;;;;;;;-144.99;98.11;52264.66;5045228;28;20011;-65
2023/09/03 07:01:17;;;;;;;;;;;;;;;-144.99;97.29;52266.69;5047136;28;20005;-63
2023/09/03 07:03:43;;;;;;;;;;;;;;;-144.99;97.13;52276.88;5033333;28;19962;-64
2023/09/03 07:06:10;;;;;;;;;;;;;;;-144.99;96.94;52276.88;5042197;28;20027;-63
2023/09/03 07:08:38;;;;;;;;;;;;;;;-144.99;96.61;52211.66;5046573;28;20039;-71
2023/09/03 07:11:04;;;;;;;;;;;;;;;-144.99;96.09;52278.91;5038890;28;19929;-71
2023/09/03 07:13:31;;;;;;;;;;;;;;;-144.99;95.85;52244.28;5040634;28;20007;-72
2023/09/03 07:15:57;;;;;;;;;;;;;;;-144.99;94.70;52232.03;5040947;28;19983;-71
2023/09/03 07:18:24;;;;;;;;;;;;;;;-144.99;93.47;52236.13;5047603;28;19967;-74
2023/09/03 07:21:03;;;;;;;;;;;;;;;-144.99;93.27;52244.28;5036853;28;20035;-72
2023/09/03 07:23:29;;;;;;;;;;;;;;;-144.99;92.66;52276.88;5033139;28;20036;-72
2023/09/03 07:26:00;;;;;;;;;;;;;;;-144.99;92.18;52227.97;5034513;28;20013;-71
2023/09/03 07:28:26;;;;;;;;;;;;;;;-144.99;92.23;52211.66;5033660;28;20024;-71
2023/09/03 07:30:53;;;;;;;;;;;;;;;-144.99;92.00;52272.81;5035500;28;20041;-71
2023/09/03 07:33:19;;;;;;;;;;;;;;;-144.99;91.49;52236.13;5040308;28;20331;-71
2023/09/03 07:35:46;;;;;;;;;;;;;;;-144.99;91.48;52252.44;5032991;28;19965;-71
2023/09/03 07:38:12;;;;;;;;;;;;;;;-144.99;90.83;52215.75;5032964;28;20619;-71
2023/09/03 07:40:39;;;;;;;;;;;;;;;-144.99;90.05;52240.19;5033916;28;19942;-71
2023/09/03 07:43:07;;;;;;;;;;;;;;;-144.99;89.25;52195.34;5036607;28;20366;-71
2023/09/03 07:45:34;;;;;;;;;;;;;;;-144.99;87.20;52252.44;5032313;28;19941;-71
2023/09/03 07:48:00;;;;;;;;;;;;;;;-144.99;87.26;52240.19;5033238;28;20501;-70
2023/09/03 07:50:28;;;;;;;;;;;;;;;-144.99;87.84;52252.44;5032242;28;20026;-71
2023/09/03 07:52:54;;;;;;;;;;;;;;;-144.99;88.27;52285.03;5036165;28;19994;-71
2023/09/03 07:55:20;;;;;;;;;;;;;;;-144.99;88.80;52207.59;5041504;28;19956;-72
2023/09/03 07:57:47;;;;;;;;;;;;;;;-144.99;88.46;52213.69;5042487;28;19994;-70
2023/09/03 08:00:15;;;;;;;;;;;;;;;-144.99;87.28;52232.03;5031691;28;20037;-71
2023/09/03 08:02:42;;;;;;;;;;;;;;;-144.99;87.42;52215.75;5029604;28;19964;-71
2023/09/03 08:05:11;;;;;;;;;;;;;;;-144.99;86.41;52207.59;5030441;28;20002;-70
2023/09/03 08:07:38;;;;;;;;;;;;;;;-144.99;85.05;52244.28;5035753;28;20066;-71
2023/09/03 08:10:05;;;;;;;;;;;;;;;-144.99;84.28;52193.31;5042171;28;20380;-71
2023/09/03 08:12:31;;;;;;;;;;;;;;;-144.99;82.66;52221.84;5043133;28;19936;-71
2023/09/03 08:14:58;;;;;;;;;;;;;;;-144.99;82.28;52219.81;5034708;28;20362;-71
2023/09/03 08:17:26;;;;;;;;;;;;;;;-144.99;81.23;52203.50;5044721;28;20501;-70
2023/09/03 08:19:52;;;;;;;;;;;;;;;-144.99;80.74;52223.88;5031964;28;20049;-70
2023/09/03 08:22:19;;;;;;;;;;;;;;;-144.99;80.22;52217.78;5029953;28;20020;-70
2023/09/03 08:24:45;;;;;;;;;;;;;;;-144.99;79.98;52199.44;5035901;28;20417;-69
2023/09/03 08:27:12;;;;;;;;;;;;;;;-144.99;79.85;52195.34;5038956;28;20690;-69
2023/09/03 08:29:38;;;;;;;;;;;;;;;-144.99;79.55;52203.50;5038312;28;19984;-70
2023/09/03 08:32:05;;;;;;;;;;;;;;;-144.99;78.94;52215.75;5032866;28;20051;-69
2023/09/03 08:34:33;;;;;;;;;;;;;;;-144.99;78.94;52223.88;5034322;28;19994;-69
2023/09/03 08:36:59;;;;;;;;;;;;;;;-144.99;79.12;52197.41;5030273;28;19948;-69
2023/09/03 08:39:26;;;;;;;;;;;;;;;-144.99;79.03;52217.78;5039025;28;20035;-69
2023/09/03 08:41:53;;;;;;;;;;;;;;;-144.99;78.59;52223.88;5041253;28;19978;-69
2023/09/03 08:44:25;;;;;;;;;;;;;;;-144.99;78.75;52230.00;5034086;28;20025;-69
2023/09/03 08:46:52;;;;;;;;;;;;;;;-144.99;78.31;52207.59;5037033;28;19943;-69
2023/09/03 08:49:19;;;;;;;;;;;;;;;-144.99;77.51;52187.19;5033298;28;19968;-69
2023/09/03 08:51:47;;;;;;;;;;;;;;;-144.99;78.24;52211.66;5035621;28;19944;-69
2023/09/03 08:54:14;;;;;;;;;;;;;;;-144.99;79.05;52215.75;5039498;28;19936;-70
2023/09/03 08:56:40;;;;;;;;;;;;;;;-144.99;79.09;52201.47;4691731;28;9999883;-70
2023/09/03 08:59:07;;;;;;;;;;;;;;;-144.99;78.77;52211.66;5036154;28;20469;-69
2023/09/03 09:01:35;;;;;;;;;;;;;;;-144.99;77.55;52219.81;5040555;28;19941;-69
2023/09/03 09:04:03;;;;;;;;;;;;;;;-144.99;76.71;52236.13;5046781;28;19965;-69
2023/09/03 09:06:30;;;;;;;;;;;;;;;-144.99;76.37;52177.00;5034801;28;19990;-68
2023/09/03 09:08:59;;;;;;;;;;;;;;;-144.99;76.14;52195.34;5036497;28;19939;-70
2023/09/03 09:11:27;;;;;;;;;;;;;;;-144.99;75.47;52177.00;5040935;28;19936;-71
2023/09/03 09:13:56;;;;;;;;;;;;;;;-144.99;75.06;52215.75;5034092;28;20069;-71
2023/09/03 09:16:23;;;;;;;;;;;;;;;-144.99;75.35;52201.47;5039239;28;20001;-71
2023/09/03 09:18:49;;;;;;;;;;;;;;;-144.99;74.66;52207.59;5040091;28;20104;-71
2023/09/03 09:21:17;;;;;;;;;;;;;;;-144.99;74.12;52193.31;5033646;28;20010;-71
2023/09/03 09:23:44;;;;;;;;;;;;;;;-144.99;73.36;52179.06;5036050;28;20018;-71
2023/09/03 09:26:18;;;;;;;;;;;;;;;-144.99;73.51;52187.19;5039737;28;19967;-70
2023/09/03 09:28:57;;;;;;;;;;;;;;;-144.99;73.26;52203.50;5030951;28;20039;-70
2023/09/03 09:31:26;;;;;;;;;;;;;;;-144.99;73.45;52195.34;5041853;28;19925;-71
2023/09/03 09:33:53;;;;;;;;;;;;;;;-144.99;74.55;52207.59;5039774;28;19966;-70
2023/09/03 09:36:19;;;;;;;;;;;;;;;-144.99;74.78;52207.59;5038910;28;19969;-71
2023/09/03 09:38:46;;;;;;;;;;;;;;;-144.99;74.23;52179.06;5038485;28;20397;-71
2023/09/03 09:41:24;;;;;;;;;;;;;;;-144.99;74.09;52199.44;5039878;28;20028;-71
2023/09/03 09:43:51;;;;;;;;;;;;;;;-144.99;73.88;52199.44;5042769;28;19969;-71
2023/09/03 09:46:27;;;;;;;;;;;;;;;-144.99;74.16;52215.75;5037080;28;20031;-74
2023/09/03 09:48:54;;;;;;;;;;;;;;;-144.99;74.20;52201.47;5030935;28;19959;-73
2023/09/03 09:51:21;;;;;;;;;;;;;;;-144.99;73.88;52191.28;4691534;28;10000699;-74
2023/09/03 09:53:54;;;;;;;;;;;;;;;-144.99;73.46;52238.16;5034823;28;19955;-74
2023/09/03 09:56:20;;;;;;;;;;;;;;;-144.99;72.82;52211.66;5033893;28;19947;-73
2023/09/03 09:58:48;;;;;;;;;;;;;;;-144.99;71.40;52162.75;5044804;28;19965;-73
2023/09/03 10:01:15;;;;;;;;;;;;;;;-144.99;71.08;52162.75;5039510;28;20021;-73
2023/09/03 10:03:42;;;;;;;;;;;;;;;-144.99;70.48;52189.25;5038340;28;20003;-74
2023/09/03 10:06:09;;;;;;;;;;;;;;;-144.99;70.53;52207.59;5036809;28;19949;-72
2023/09/03 10:08:36;;;;;;;;;;;;;;;-144.99;70.17;52191.28;5039269;28;20036;-73
2023/09/03 10:11:03;;;;;;;;;;;;;;;-144.99;70.45;52181.09;5043500;28;20325;-73
2023/09/03 10:13:30;;;;;;;;;;;;;;;-144.99;70.33;52199.44;5033998;28;19956;-74
2023/09/03 10:16:02;;;;;;;;;;;;;;;-144.99;70.83;52219.81;5045412;28;19968;-74
2023/09/03 10:18:28;;;;;;;;;;;;;;;-144.99;70.82;52219.81;5037873;28;20316;-74
2023/09/03 10:20:56;;;;;;;;;;;;;;;-144.99;70.42;52174.97;5040249;28;19970;-74
2023/09/03 10:23:24;;;;;;;;;;;;;;;-144.99;69.73;52148.47;5037746;28;20017;-74
2023/09/03 10:25:51;;;;;;;;;;;;;;;-144.99;68.38;52140.31;5034844;28;19954;-74
2023/09/03 10:28:22;;;;;;;;;;;;;;;-144.99;68.16;52138.28;5034298;28;19948;-74
2023/09/03 10:30:51;;;;;;;;;;;;;;;-144.99;66.06;52121.97;5033144;28;19955;-74
2023/09/03 10:33:19;;;;;;;;;;;;;;;-144.99;66.05;52097.53;5038348;28;19937;-74
2023/09/03 10:36:01;;;;;;;;;;;;;;;-144.99;65.76;52085.31;5032433;28;20011;-74
2023/09/03 10:38:30;;;;;;;;;;;;;;;-144.99;65.19;52109.75;5038055;28;20058;-74
2023/09/03 10:41:15;;;;;;;;;;;;;;;-144.99;64.16;52032.31;5031929;28;19946;-74
2023/09/03 10:43:41;;;;;;;;;;;;;;;-144.99;63.85;52146.44;5024250;28;19963;-73
2023/09/03 10:46:08;;;;;;;;;;;;;;;-144.99;64.01;52166.81;5036791;28;19978;-74
2023/09/03 10:48:36;;;;;;;;;;;;;;;-144.99;65.46;52162.75;5042698;28;19976;-74
2023/09/03 10:51:03;;;;;;;;;;;;;;;-144.99;66.98;52207.59;5034694;28;20027;-65
2023/09/03 10:53:36;;;;;;;;;;;;;;;-144.99;66.55;52162.75;5034866;28;20269;-72
2023/09/03 10:56:06;;;;;;;;;;;;;;;-144.99;65.87;52134.22;5034130;28;19968;-72
2023/09/03 10:58:33;;;;;;;;;;;;;;;-144.99;65.91;52113.84;5033780;28;19967;-72
2023/09/03 11:01:18;;;;;;;;;;;;;;;-144.99;66.07;52174.97;5032272;28;20066;-72
2023/09/03 11:03:47;;;;;;;;;;;;;;;-144.99;66.35;52113.84;5033470;28;19955;-74
2023/09/03 11:06:14;;;;;;;;;;;;;;;-144.99;66.14;52097.53;5023867;28;20353;-73
2023/09/03 11:08:41;;;;;;;;;;;;;;;-144.99;66.28;52101.59;5042589;28;19936;-73
2023/09/03 11:11:10;;;;;;;;;;;;;;;-144.99;65.70;52130.13;5040566;28;19971;-74
2023/09/03 11:13:36;;;;;;;;;;;;;;;-144.99;66.11;52089.38;5041884;28;19962;-73
2023/09/03 11:16:03;;;;;;;;;;;;;;;-144.99;64.12;52056.78;5035166;28;19943;-74
2023/09/03 11:18:30;;;;;;;;;;;;;;;-144.99;63.40;52091.41;5043056;28;19955;-74
2023/09/03 11:20:59;;;;;;;;;;;;;;;-144.99;63.43;52101.59;5042270;28;19970;-73
2023/09/03 11:23:27;;;;;;;;;;;;;;;-144.99;62.75;52077.16;5041596;28;19972;-75
2023/09/03 11:25:54;;;;;;;;;;;;;;;-144.99;61.80;52040.47;5034812;28;20028;-75
2023/09/03 11:28:20;;;;;;;;;;;;;;;-144.99;61.72;52064.91;5039631;28;19976;-73
2023/09/03 11:30:47;;;;;;;;;;;;;;;-144.99;61.40;52077.16;5037647;28;19998;-73
2023/09/03 11:33:23;;;;;;;;;;;;;;;-144.99;61.11;52060.84;5046414;28;19976;-73
2023/09/03 11:35:49;;;;;;;;;;;;;;;-144.99;62.09;52113.84;5035863;28;20255;-73
2023/09/03 11:38:17;;;;;;;;;;;;;;;-144.99;62.66;52113.84;5040546;28;20000;-73
2023/09/03 11:40:44;;;;;;;;;;;;;;;-144.99;63.51;52158.66;5036497;28;20431;-73
2023/09/03 11:43:10;;;;;;;;;;;;;;;-144.99;63.04;52138.28;5043855;28;20067;-73
2023/09/03 11:45:37;;;;;;;;;;;;;;;-144.99;63.10;52174.97;5043138;28;19986;-73
2023/09/03 11:48:06;;;;;;;;;;;;;;;-144.99;64.14;52183.13;5043436;28;19939;-73
2023/09/03 11:50:33;;;;;;;;;;;;;;;-144.99;64.18;52148.47;5032047;28;20378;-73
2023/09/03 11:52:59;;;;;;;;;;;;;;;-144.99;64.62;52146.44;5037003;28;20471;-73
2023/09/03 11:55:29;;;;;;;;;;;;;;;-144.99;64.40;52138.28;5039485;28;20025;-73
2023/09/03 11:57:57;;;;;;;;;;;;;;;-144.99;64.64;52138.28;5040972;28;19966;-73
2023/09/03 12:00:24;;;;;;;;;;;;;;;-144.99;64.82;52081.22;5040649;28;19951;-73
2023/09/03 12:02:52;;;;;;;;;;;;;;;-144.99;63.70;52097.53;5039982;28;19982;-73
2023/09/03 12:05:19;;;;;;;;;;;;;;;-144.99;63.12;52085.31;5046468;28;19948;-73
2023/09/03 12:07:46;;;;;;;;;;;;;;;-144.99;62.65;52150.53;5042103;28;20040;-73
2023/09/03 12:10:17;;;;;;;;;;;;;;;-144.99;62.56;52093.44;5033817;28;19948;-72
2023/09/03 12:12:45;;;;;;;;;;;;;;;-144.99;63.23;52117.91;5037324;28;19994;-72
2023/09/03 12:15:18;;;;;;;;;;;;;;;-144.99;63.09;52101.59;5046860;28;20063;-72
2023/09/03 12:17:45;;;;;;;;;;;;;;;-144.99;62.99;52097.53;5043048;28;20359;-72
2023/09/03 12:20:26;;;;;;;;;;;;;;;-144.99;62.72;52124.03;5041464;28;19959;-72
2023/09/03 12:22:52;;;;;;;;;;;;;;;-144.99;62.90;52138.28;5040760;28;20435;-72
2023/09/03 12:25:19;;;;;;;;;;;;;;;-144.99;62.82;52152.56;5039132;28;20916;-72